Time;durP1;ratioP1;P1;durP2;ratioP2;P2;SDS_P1;SDS_P2;PMS_P1;PMS_P2;Temp;Humidity;BMP_temperature;BMP_pressure;BME280_temperature;BME280_humidity;BME280_pressure;Samples;Min_cycle;Max_cycle;Signal;HPM_P1;HPM_P2
2022/03/10 00:17:20;;;;;;;;;44.75;34.25;;;;;;;;5014073;28;45350;-77
2022/03/10 00:19:45;;;;;;;;;34.00;32.00;;;;;;;;5015713;28;45441;-79
2022/03/10 00:22:11;;;;;;;;;30.75;27.00;;;;;;;;5015423;28;45588;-79
2022/03/10 00:24:37;;;;;;;;;41.00;33.25;;;;;;;;5015269;28;45309;-78
2022/03/10 00:42:43;;;;;;;;;32.25;31.50;;;;;;;;5392942;22;45430;-77
2022/03/10 00:45:08;;;;;;;;;33.25;30.00;;;;;;;;5022228;28;45501;-79
2022/03/10 00:48:06;;;;;;;;;35.75;32.00;;;;;;;;5031616;28;45366;-80
2022/03/10 00:53:34;;;;;;;;;44.00;34.75;;;;;;;;5033998;28;45252;-79
2022/03/10 00:56:03;;;;;;;;;38.75;34.00;;;;;;;;5035014;28;45484;-79
2022/03/10 01:04:53;;;;;;;;;42.50;36.25;;;;;;;;5023932;28;45932;-79
2022/03/10 01:07:23;;;;;;;;;30.00;30.00;;;;;;;;5020621;28;45349;-78
2022/03/10 01:09:52;;;;;;;;;40.50;34.00;;;;;;;;5042565;28;45605;-79
2022/03/10 01:12:17;;;;;;;;;38.00;34.75;;;;;;;;5036463;28;45404;-77
2022/03/10 01:14:45;;;;;;;;;41.50;35.00;;;;;;;;5034838;28;46769;-77
2022/03/10 01:17:10;;;;;;;;;39.50;33.75;;;;;;;;5034572;28;45292;-78
2022/03/10 01:19:36;;;;;;;;;42.75;35.75;;;;;;;;5034807;28;45485;-78
2022/03/10 01:22:07;;;;;;;;;37.00;32.75;;;;;;;;5034472;28;45426;-78
2022/03/10 01:27:18;;;;;;;;;43.25;35.75;;;;;;;;5020471;28;45276;-79
2022/03/10 01:29:47;;;;;;;;;41.00;34.00;;;;;;;;5034228;28;45357;-79
2022/03/10 01:32:21;;;;;;;;;35.75;33.00;;;;;;;;5035049;28;45535;-78
2022/03/10 01:34:51;;;;;;;;;44.25;36.50;;;;;;;;5039600;28;48061;-80
2022/03/10 01:37:19;;;;;;;;;38.25;32.75;;;;;;;;5034264;28;45358;-80
2022/03/10 01:42:47;;;;;;;;;34.00;32.50;;;;;;;;4975155;28;45690;-79
2022/03/10 01:45:47;;;;;;;;;37.25;32.50;;;;;;;;4975482;28;46105;-78
2022/03/10 01:51:30;;;;;;;;;37.50;34.00;;;;;;;;5011549;22;45451;-79
2022/03/10 02:00:02;;;;;;;;;34.50;31.25;;;;;;;;5077371;22;45597;-79
2022/03/10 02:02:36;;;;;;;;;36.50;32.25;;;;;;;;5026071;28;45649;-79
2022/03/10 02:05:01;;;;;;;;;38.75;32.75;;;;;;;;5026124;28;45495;-78
2022/03/10 02:11:10;;;;;;;;;37.75;33.75;;;;;;;;4962057;28;45601;-80
2022/03/10 02:13:44;;;;;;;;;36.00;32.50;;;;;;;;4970758;28;45512;-80
2022/03/10 02:18:54;;;;;;;;;37.50;32.25;;;;;;;;5017730;28;45710;-79
2022/03/10 02:21:19;;;;;;;;;33.50;29.75;;;;;;;;5034370;28;45376;-79
2022/03/10 02:23:44;;;;;;;;;37.50;33.25;;;;;;;;5033650;28;45451;-79
2022/03/10 02:26:10;;;;;;;;;35.25;29.75;;;;;;;;5033938;28;45398;-79
2022/03/10 02:28:40;;;;;;;;;39.25;32.75;;;;;;;;5033698;28;46059;-79
2022/03/10 02:33:33;;;;;;;;;42.75;33.50;;;;;;;;5121436;22;45501;-78
2022/03/10 02:38:36;;;;;;;;;33.50;29.75;;;;;;;;5060318;22;45587;-79
2022/03/10 02:41:27;;;;;;;;;32.25;29.75;;;;;;;;5036561;28;45372;-80
2022/03/10 02:43:55;;;;;;;;;38.25;32.00;;;;;;;;5019406;28;45609;-79
2022/03/10 02:46:20;;;;;;;;;37.25;33.25;;;;;;;;5043653;22;45963;-80
2022/03/10 02:48:45;;;;;;;;;31.00;29.00;;;;;;;;5036577;28;46345;-80
2022/03/10 02:51:12;;;;;;;;;37.25;29.75;;;;;;;;5037586;28;45355;-80
2022/03/10 02:58:47;;;;;;;;;36.25;32.00;;;;;;;;5317976;22;46246;-75
2022/03/10 03:01:12;;;;;;;;;35.25;32.00;;;;;;;;5023149;28;45402;-76
2022/03/10 03:03:38;;;;;;;;;33.00;28.25;;;;;;;;5037254;28;45519;-76
2022/03/10 03:06:03;;;;;;;;;34.75;29.75;;;;;;;;5037376;28;45479;-75
2022/03/10 03:08:28;;;;;;;;;34.75;30.00;;;;;;;;5036804;28;45772;-76
2022/03/10 03:10:53;;;;;;;;;34.75;31.75;;;;;;;;5034167;28;45306;-76
2022/03/10 03:13:19;;;;;;;;;35.25;32.75;;;;;;;;5023997;28;45559;-76
2022/03/10 03:15:44;;;;;;;;;33.50;28.75;;;;;;;;5036905;28;45465;-76
2022/03/10 03:18:09;;;;;;;;;39.50;34.00;;;;;;;;5036356;28;46493;-76
2022/03/10 03:20:34;;;;;;;;;32.50;31.25;;;;;;;;5036061;28;45575;-76
2022/03/10 03:23:00;;;;;;;;;37.50;30.25;;;;;;;;5036453;28;45406;-76
2022/03/10 03:25:25;;;;;;;;;33.50;31.50;;;;;;;;5036523;28;45503;-76
2022/03/10 03:27:50;;;;;;;;;37.75;32.25;;;;;;;;5036394;28;45465;-76
2022/03/10 03:30:16;;;;;;;;;32.25;29.25;;;;;;;;5037007;28;45319;-76
2022/03/10 03:32:41;;;;;;;;;29.00;27.25;;;;;;;;5035865;28;45512;-75
2022/03/10 03:35:07;;;;;;;;;36.25;32.50;;;;;;;;5036344;28;45301;-75
2022/03/10 03:37:32;;;;;;;;;34.25;29.00;;;;;;;;5036305;28;47295;-75
2022/03/10 03:39:57;;;;;;;;;38.50;33.25;;;;;;;;5020411;28;45319;-74
2022/03/10 03:42:22;;;;;;;;;31.25;25.00;;;;;;;;5037023;28;45264;-75
2022/03/10 03:44:48;;;;;;;;;40.00;32.00;;;;;;;;5035761;28;45224;-75
2022/03/10 03:47:13;;;;;;;;;19.50;15.75;;;;;;;;5035470;28;46107;-75
2022/03/10 03:49:41;;;;;;;;;32.00;30.25;;;;;;;;5034216;28;45504;-75
2022/03/10 03:52:06;;;;;;;;;38.50;30.25;;;;;;;;5021514;28;45519;-75
2022/03/10 03:54:32;;;;;;;;;23.50;22.25;;;;;;;;5036424;28;45527;-76
2022/03/10 03:56:57;;;;;;;;;34.50;31.75;;;;;;;;5036333;28;45708;-74
2022/03/10 03:59:23;;;;;;;;;36.75;31.50;;;;;;;;5035720;28;45559;-75
2022/03/10 04:01:49;;;;;;;;;33.25;29.50;;;;;;;;5035428;28;45619;-75
2022/03/10 04:04:14;;;;;;;;;37.75;34.50;;;;;;;;5035756;28;45532;-75
2022/03/10 04:06:40;;;;;;;;;39.50;34.50;;;;;;;;5035899;28;46327;-75
2022/03/10 04:09:05;;;;;;;;;31.75;29.50;;;;;;;;5036047;28;45493;-75
2022/03/10 04:11:30;;;;;;;;;35.50;30.50;;;;;;;;5035441;28;45498;-76
2022/03/10 04:13:56;;;;;;;;;34.50;29.75;;;;;;;;5035085;28;45366;-76
2022/03/10 04:16:21;;;;;;;;;29.75;27.75;;;;;;;;5034633;28;45308;-74
2022/03/10 04:18:46;;;;;;;;;42.25;34.75;;;;;;;;5018074;28;45632;-74
2022/03/10 04:21:11;;;;;;;;;32.00;30.50;;;;;;;;5035915;28;45385;-74
2022/03/10 04:23:36;;;;;;;;;34.00;29.25;;;;;;;;5035239;28;45662;-74
2022/03/10 04:26:02;;;;;;;;;32.75;29.75;;;;;;;;5034774;28;46440;-76
2022/03/10 04:28:27;;;;;;;;;34.50;30.75;;;;;;;;5035307;28;45330;-75
2022/03/10 04:30:52;;;;;;;;;35.25;33.50;;;;;;;;5034813;28;45292;-76
2022/03/10 04:33:18;;;;;;;;;39.75;30.75;;;;;;;;5035743;28;45361;-75
2022/03/10 04:35:43;;;;;;;;;33.50;30.75;;;;;;;;5034582;28;46316;-75
2022/03/10 04:38:09;;;;;;;;;31.25;27.50;;;;;;;;5034846;28;45455;-75
2022/03/10 04:40:34;;;;;;;;;28.50;26.25;;;;;;;;5035143;28;45316;-75
2022/03/10 04:43:00;;;;;;;;;35.25;30.00;;;;;;;;5034852;28;45157;-76
2022/03/10 04:45:25;;;;;;;;;33.50;28.25;;;;;;;;5035008;28;46299;-75
2022/03/10 04:47:50;;;;;;;;;31.75;30.75;;;;;;;;5034603;28;45555;-75
2022/03/10 04:50:18;;;;;;;;;30.75;30.50;;;;;;;;5035291;28;45445;-75
2022/03/10 04:52:43;;;;;;;;;30.25;29.25;;;;;;;;5034810;28;45499;-75
2022/03/10 04:55:10;;;;;;;;;33.75;30.50;;;;;;;;5033252;28;47074;-76
2022/03/10 04:57:36;;;;;;;;;38.50;33.75;;;;;;;;5018645;28;45295;-76
2022/03/10 05:00:08;;;;;;;;;35.00;27.50;;;;;;;;5020899;28;45368;-75
2022/03/10 05:02:33;;;;;;;;;34.75;31.00;;;;;;;;5031186;28;45512;-77
2022/03/10 05:04:58;;;;;;;;;31.50;27.75;;;;;;;;5034122;28;46186;-77
2022/03/10 05:07:23;;;;;;;;;36.00;31.00;;;;;;;;5034782;28;45458;-75
2022/03/10 05:09:48;;;;;;;;;38.00;31.00;;;;;;;;5034715;28;45568;-75
2022/03/10 05:12:14;;;;;;;;;35.50;33.00;;;;;;;;5034791;28;45458;-76
2022/03/10 05:14:39;;;;;;;;;35.50;30.25;;;;;;;;5033226;28;45556;-76
2022/03/10 05:17:04;;;;;;;;;36.75;31.50;;;;;;;;5034014;28;45515;-75
2022/03/10 05:19:29;;;;;;;;;37.00;33.50;;;;;;;;5033820;28;45525;-76
2022/03/10 05:21:54;;;;;;;;;35.50;32.25;;;;;;;;5033492;28;45367;-76
2022/03/10 05:24:20;;;;;;;;;34.75;31.00;;;;;;;;5034420;28;45419;-76
2022/03/10 05:26:45;;;;;;;;;38.00;32.75;;;;;;;;5033878;28;45353;-76
2022/03/10 05:29:11;;;;;;;;;38.25;32.00;;;;;;;;5033713;28;45459;-77
2022/03/10 05:31:36;;;;;;;;;31.25;28.25;;;;;;;;5033375;28;47073;-76
2022/03/10 05:34:02;;;;;;;;;43.75;34.75;;;;;;;;5034047;28;46126;-75
2022/03/10 05:36:27;;;;;;;;;37.00;33.75;;;;;;;;5018647;28;45550;-75
2022/03/10 05:38:52;;;;;;;;;33.50;29.50;;;;;;;;5031811;28;45542;-76
2022/03/10 05:41:17;;;;;;;;;34.75;31.00;;;;;;;;5033659;28;45546;-76
2022/03/10 05:43:42;;;;;;;;;32.75;31.00;;;;;;;;5032388;28;45477;-76
2022/03/10 05:46:08;;;;;;;;;33.25;29.00;;;;;;;;5033107;28;45339;-76
2022/03/10 05:48:33;;;;;;;;;35.75;33.00;;;;;;;;5034038;28;45252;-76
2022/03/10 05:50:58;;;;;;;;;35.50;32.00;;;;;;;;5033958;28;45496;-75
2022/03/10 05:53:23;;;;;;;;;33.75;30.75;;;;;;;;5033234;28;47062;-75
2022/03/10 05:55:49;;;;;;;;;30.25;21.00;;;;;;;;5033014;28;45549;-76
2022/03/10 05:58:14;;;;;;;;;32.50;31.00;;;;;;;;5031290;28;45327;-75
2022/03/10 06:00:39;;;;;;;;;34.00;32.25;;;;;;;;5033236;28;45254;-75
2022/03/10 06:03:06;;;;;;;;;38.75;34.75;;;;;;;;5033224;28;46056;-74
2022/03/10 06:05:32;;;;;;;;;33.00;30.75;;;;;;;;5033361;28;45421;-75
2022/03/10 06:07:57;;;;;;;;;35.75;30.00;;;;;;;;5033778;28;45539;-74
2022/03/10 06:10:22;;;;;;;;;33.50;28.25;;;;;;;;5034286;28;45483;-74
2022/03/10 06:12:48;;;;;;;;;37.00;32.50;;;;;;;;5036562;28;46494;-74
2022/03/10 06:15:13;;;;;;;;;30.25;30.00;;;;;;;;5023709;28;45330;-73
2022/03/10 06:17:39;;;;;;;;;41.50;35.00;;;;;;;;5035439;28;45428;-75
2022/03/10 06:20:05;;;;;;;;;32.00;29.75;;;;;;;;5036341;28;45426;-75
2022/03/10 06:22:31;;;;;;;;;39.50;33.25;;;;;;;;5035141;28;45485;-75
2022/03/10 06:24:57;;;;;;;;;39.00;33.50;;;;;;;;5035754;28;45314;-75
2022/03/10 06:27:22;;;;;;;;;36.50;31.25;;;;;;;;5034299;28;45418;-74
2022/03/10 06:29:48;;;;;;;;;40.00;32.00;;;;;;;;5035034;28;45473;-72
2022/03/10 06:32:15;;;;;;;;;34.75;31.00;;;;;;;;5034851;28;45705;-72
2022/03/10 06:34:40;;;;;;;;;42.00;35.75;;;;;;;;5036152;28;45378;-72
2022/03/10 06:37:06;;;;;;;;;37.00;34.50;;;;;;;;5039972;28;45297;-73
2022/03/10 06:39:32;;;;;;;;;42.75;35.00;;;;;;;;5023864;28;45478;-73
2022/03/10 06:41:57;;;;;;;;;34.25;28.25;;;;;;;;5042164;28;45986;-70
2022/03/10 06:44:23;;;;;;;;;35.25;31.25;;;;;;;;5042069;28;45444;-72
2022/03/10 06:46:48;;;;;;;;;35.00;31.75;;;;;;;;5042235;28;45339;-74
2022/03/10 06:49:13;;;;;;;;;42.25;37.00;;;;;;;;5038539;28;45509;-73
2022/03/10 06:51:39;;;;;;;;;38.50;32.50;;;;;;;;5037517;28;45472;-73
2022/03/10 06:54:07;;;;;;;;;36.50;31.25;;;;;;;;5037114;28;45407;-73
2022/03/10 06:56:32;;;;;;;;;35.75;33.50;;;;;;;;5035309;28;45582;-71
2022/03/10 06:58:58;;;;;;;;;33.00;30.50;;;;;;;;5035654;28;45349;-72
2022/03/10 07:01:24;;;;;;;;;36.75;29.50;;;;;;;;5035431;28;45408;-72
2022/03/10 07:03:51;;;;;;;;;31.00;28.50;;;;;;;;5034923;28;45523;-72
2022/03/10 07:06:16;;;;;;;;;45.50;36.00;;;;;;;;5035117;28;45445;-73
2022/03/10 07:08:41;;;;;;;;;41.50;34.00;;;;;;;;5032927;28;45466;-72
2022/03/10 07:11:07;;;;;;;;;39.25;30.75;;;;;;;;5034441;28;46157;-73
2022/03/10 07:13:34;;;;;;;;;38.50;32.00;;;;;;;;5034658;28;45474;-73
2022/03/10 07:15:59;;;;;;;;;36.25;26.50;;;;;;;;5018896;28;45363;-73
2022/03/10 07:18:24;;;;;;;;;41.00;34.75;;;;;;;;5034819;28;45584;-73
2022/03/10 07:20:49;;;;;;;;;42.75;34.00;;;;;;;;5034589;28;47050;-72
2022/03/10 07:23:15;;;;;;;;;41.50;33.50;;;;;;;;5034816;28;45752;-73
2022/03/10 07:25:42;;;;;;;;;45.00;36.00;;;;;;;;5034550;28;45664;-73
2022/03/10 07:28:08;;;;;;;;;32.50;30.00;;;;;;;;5034839;28;45380;-71
2022/03/10 07:30:33;;;;;;;;;44.00;33.75;;;;;;;;5033406;28;47114;-72
2022/03/10 07:32:58;;;;;;;;;43.75;35.00;;;;;;;;5023073;28;45427;-72
2022/03/10 07:35:24;;;;;;;;;40.25;36.50;;;;;;;;5030667;28;45453;-73
2022/03/10 07:37:49;;;;;;;;;45.00;34.00;;;;;;;;5032229;28;45552;-74
2022/03/10 07:40:15;;;;;;;;;45.75;34.50;;;;;;;;5020501;28;46491;-73
2022/03/10 07:42:40;;;;;;;;;39.50;35.00;;;;;;;;5034440;28;45626;-73
2022/03/10 07:45:06;;;;;;;;;44.00;34.00;;;;;;;;5034459;28;45360;-73
2022/03/10 07:47:31;;;;;;;;;42.50;34.50;;;;;;;;5033775;28;45311;-73
2022/03/10 07:49:57;;;;;;;;;45.25;34.75;;;;;;;;5030724;28;45279;-73
2022/03/10 07:52:22;;;;;;;;;42.50;36.00;;;;;;;;5020747;28;45514;-73
2022/03/10 07:54:48;;;;;;;;;42.50;33.00;;;;;;;;5032979;28;45426;-72
2022/03/10 07:57:13;;;;;;;;;38.00;32.00;;;;;;;;5033933;28;45405;-73
2022/03/10 07:59:38;;;;;;;;;38.75;33.50;;;;;;;;5033328;28;45845;-73
2022/03/10 08:02:03;;;;;;;;;39.50;33.25;;;;;;;;5033331;28;45439;-73
2022/03/10 08:04:29;;;;;;;;;45.00;35.50;;;;;;;;5033735;28;45510;-72
2022/03/10 08:06:54;;;;;;;;;38.25;32.50;;;;;;;;5033979;28;45573;-73
2022/03/10 08:09:20;;;;;;;;;45.00;33.00;;;;;;;;5034126;28;46008;-72
2022/03/10 08:11:45;;;;;;;;;40.00;34.75;;;;;;;;5023915;28;45486;-73
2022/03/10 08:14:10;;;;;;;;;41.00;35.00;;;;;;;;5027637;28;45352;-73
2022/03/10 08:16:36;;;;;;;;;39.00;31.00;;;;;;;;5034321;28;45414;-72
2022/03/10 08:19:01;;;;;;;;;37.00;32.25;;;;;;;;5034235;28;46041;-71
2022/03/10 08:21:26;;;;;;;;;36.25;32.75;;;;;;;;5030107;28;45409;-72
2022/03/10 08:23:52;;;;;;;;;33.00;31.00;;;;;;;;5033212;28;45492;-73
2022/03/10 08:26:17;;;;;;;;;39.75;33.50;;;;;;;;5033665;28;45304;-73
2022/03/10 08:28:43;;;;;;;;;37.25;34.00;;;;;;;;5033135;28;45461;-72
2022/03/10 08:31:10;;;;;;;;;41.50;32.75;;;;;;;;5033591;28;45421;-73
2022/03/10 08:33:35;;;;;;;;;31.75;22.00;;;;;;;;5033472;28;45244;-74
2022/03/10 08:36:01;;;;;;;;;44.75;34.00;;;;;;;;5032943;28;45314;-73
2022/03/10 08:38:26;;;;;;;;;36.50;31.75;;;;;;;;5032636;28;46176;-72
2022/03/10 08:40:51;;;;;;;;;30.75;28.00;;;;;;;;5032962;28;45225;-73
2022/03/10 08:43:16;;;;;;;;;39.00;33.00;;;;;;;;5033269;28;45591;-72
2022/03/10 08:45:42;;;;;;;;;36.25;30.00;;;;;;;;5033089;28;45251;-72
2022/03/10 08:48:07;;;;;;;;;34.25;32.50;;;;;;;;5033092;28;45505;-71
2022/03/10 08:50:32;;;;;;;;;38.50;32.25;;;;;;;;5024255;28;45390;-72
2022/03/10 08:52:58;;;;;;;;;31.75;30.25;;;;;;;;5024224;28;45346;-73
2022/03/10 08:55:23;;;;;;;;;40.50;31.25;;;;;;;;5033434;28;45438;-73
2022/03/10 08:57:48;;;;;;;;;35.50;30.75;;;;;;;;5033199;28;46262;-73
2022/03/10 09:00:14;;;;;;;;;31.75;31.00;;;;;;;;5033414;28;45284;-73
2022/03/10 09:02:42;;;;;;;;;32.50;29.50;;;;;;;;5032416;28;45443;-72
2022/03/10 09:05:10;;;;;;;;;24.50;20.25;;;;;;;;5032416;28;45289;-73
2022/03/10 09:07:36;;;;;;;;;34.75;29.25;;;;;;;;5032316;28;46138;-72
2022/03/10 09:10:02;;;;;;;;;33.00;29.75;;;;;;;;5032977;28;45512;-72
2022/03/10 09:12:27;;;;;;;;;44.25;34.50;;;;;;;;5032697;28;45365;-73
2022/03/10 09:14:52;;;;;;;;;32.25;28.25;;;;;;;;5032714;28;45439;-71
2022/03/10 09:17:18;;;;;;;;;35.25;31.75;;;;;;;;5033066;28;47105;-73
2022/03/10 09:19:43;;;;;;;;;34.75;28.25;;;;;;;;5033024;28;45421;-71
2022/03/10 09:22:08;;;;;;;;;27.00;26.50;;;;;;;;5032410;28;45362;-72
2022/03/10 09:24:33;;;;;;;;;32.75;29.25;;;;;;;;5033218;28;45588;-73
2022/03/10 09:26:59;;;;;;;;;32.50;30.50;;;;;;;;5032835;28;46255;-72
2022/03/10 09:29:24;;;;;;;;;30.25;29.00;;;;;;;;5024438;28;45494;-72
2022/03/10 09:31:49;;;;;;;;;37.50;28.50;;;;;;;;5023860;28;45410;-72
2022/03/10 09:34:15;;;;;;;;;37.75;31.00;;;;;;;;5033012;28;45507;-72
2022/03/10 09:36:40;;;;;;;;;30.75;28.75;;;;;;;;5016325;28;46432;-72
2022/03/10 09:39:06;;;;;;;;;25.00;22.25;;;;;;;;5033532;28;45455;-72
2022/03/10 09:41:31;;;;;;;;;60.75;49.00;;;;;;;;5032154;28;45506;-73
2022/03/10 09:43:56;;;;;;;;;33.25;27.50;;;;;;;;5031614;28;45468;-72
2022/03/10 09:46:22;;;;;;;;;22.00;21.00;;;;;;;;5030085;28;45393;-71
2022/03/10 09:48:47;;;;;;;;;34.00;27.75;;;;;;;;5032234;28;45334;-72
2022/03/10 09:51:13;;;;;;;;;30.75;27.50;;;;;;;;5032309;28;45743;-72
2022/03/10 09:53:39;;;;;;;;;26.50;25.50;;;;;;;;5032742;28;45380;-73
2022/03/10 09:56:04;;;;;;;;;27.25;26.00;;;;;;;;5032018;28;45582;-73
2022/03/10 09:58:31;;;;;;;;;32.25;28.50;;;;;;;;5032333;28;45577;-73
2022/03/10 10:01:03;;;;;;;;;27.25;24.25;;;;;;;;5032362;28;45430;-73
2022/03/10 10:03:28;;;;;;;;;23.00;23.00;;;;;;;;5028239;28;45269;-73
2022/03/10 10:05:58;;;;;;;;;19.25;15.50;;;;;;;;5031258;28;46073;-72
2022/03/10 10:08:23;;;;;;;;;29.25;26.50;;;;;;;;5025403;28;45578;-73
2022/03/10 10:10:49;;;;;;;;;25.75;25.75;;;;;;;;5022581;28;45388;-73
2022/03/10 10:13:30;;;;;;;;;18.00;16.25;;;;;;;;5031693;28;45649;-73
2022/03/10 10:15:57;;;;;;;;;22.50;19.50;;;;;;;;5031460;28;46537;-73
2022/03/10 10:18:22;;;;;;;;;24.00;22.50;;;;;;;;5032007;28;45536;-73
2022/03/10 10:20:48;;;;;;;;;26.00;22.75;;;;;;;;5031774;28;45664;-73
2022/03/10 10:23:19;;;;;;;;;25.25;23.00;;;;;;;;5031170;28;45568;-73
2022/03/10 10:25:55;;;;;;;;;22.00;20.25;;;;;;;;5031228;28;45424;-72
2022/03/10 10:28:28;;;;;;;;;25.50;25.50;;;;;;;;5030894;28;45448;-73
2022/03/10 10:30:54;;;;;;;;;22.75;19.75;;;;;;;;5031433;28;45484;-72
2022/03/10 10:33:20;;;;;;;;;24.50;20.25;;;;;;;;5017026;28;45451;-73
2022/03/10 10:35:46;;;;;;;;;26.00;23.00;;;;;;;;5029369;28;47158;-73
2022/03/10 10:38:26;;;;;;;;;23.75;20.50;;;;;;;;5030844;28;45360;-73
2022/03/10 10:40:53;;;;;;;;;21.50;19.25;;;;;;;;5030769;28;45434;-73
2022/03/10 10:43:19;;;;;;;;;22.50;20.50;;;;;;;;5030903;28;45565;-73
2022/03/10 10:45:44;;;;;;;;;18.00;18.00;;;;;;;;5031498;28;47452;-72
2022/03/10 10:48:10;;;;;;;;;27.00;23.75;;;;;;;;5018248;28;45445;-71
2022/03/10 10:50:36;;;;;;;;;23.50;21.75;;;;;;;;5029140;28;45633;-73
2022/03/10 10:53:03;;;;;;;;;23.00;22.00;;;;;;;;5030909;28;45383;-72
2022/03/10 10:55:35;;;;;;;;;21.75;21.25;;;;;;;;5030504;28;45425;-73
2022/03/10 10:58:06;;;;;;;;;21.00;19.75;;;;;;;;5016244;28;45293;-72
2022/03/10 11:00:42;;;;;;;;;27.25;22.00;;;;;;;;5031454;28;45315;-73
2022/03/10 11:03:26;;;;;;;;;20.75;18.25;;;;;;;;5021141;28;45383;-73
2022/03/10 11:05:52;;;;;;;;;31.50;22.25;;;;;;;;5033344;28;47304;-73
2022/03/10 11:08:20;;;;;;;;;26.75;23.25;;;;;;;;5033285;28;45480;-72
2022/03/10 11:10:45;;;;;;;;;31.50;30.25;;;;;;;;5034364;28;45322;-72
2022/03/10 11:13:10;;;;;;;;;22.50;19.25;;;;;;;;5034620;28;45232;-74
2022/03/10 11:15:37;;;;;;;;;19.75;17.50;;;;;;;;5033803;28;47400;-73
2022/03/10 11:18:03;;;;;;;;;14.75;14.75;;;;;;;;5034493;28;45509;-73
2022/03/10 11:20:29;;;;;;;;;20.00;18.50;;;;;;;;5034329;28;45595;-73
2022/03/10 11:23:10;;;;;;;;;22.25;19.00;;;;;;;;5034412;28;45565;-72
2022/03/10 11:25:35;;;;;;;;;13.75;12.75;;;;;;;;5034416;28;45551;-73
2022/03/10 11:28:11;;;;;;;;;15.75;13.75;;;;;;;;5019030;28;45637;-73
2022/03/10 11:30:37;;;;;;;;;14.25;14.25;;;;;;;;5031923;28;45405;-72
2022/03/10 11:33:05;;;;;;;;;20.75;16.25;;;;;;;;5035266;28;45514;-73
2022/03/10 11:35:36;;;;;;;;;18.25;15.50;;;;;;;;5034536;28;45449;-75
2022/03/10 11:38:02;;;;;;;;;18.50;15.00;;;;;;;;5034335;28;45342;-73
2022/03/10 11:40:46;;;;;;;;;19.25;16.00;;;;;;;;5034554;28;45496;-73
2022/03/10 11:43:17;;;;;;;;;13.50;13.00;;;;;;;;5020033;28;45561;-74
2022/03/10 11:45:42;;;;;;;;;14.25;14.25;;;;;;;;5034311;28;46411;-73
2022/03/10 11:48:32;;;;;;;;;13.75;12.00;;;;;;;;5034821;28;45391;-73
2022/03/10 11:50:57;;;;;;;;;11.50;9.50;;;;;;;;5034241;28;45271;-73
2022/03/10 11:53:22;;;;;;;;;13.25;13.00;;;;;;;;5033420;28;46595;-73
2022/03/10 11:55:52;;;;;;;;;11.50;10.75;;;;;;;;5033358;28;46487;-74
2022/03/10 11:58:18;;;;;;;;;16.00;16.00;;;;;;;;5033471;28;45578;-72
2022/03/10 12:00:47;;;;;;;;;13.75;13.50;;;;;;;;5033147;28;45377;-74
2022/03/10 12:03:24;;;;;;;;;12.25;10.50;;;;;;;;5031864;28;45403;-72
2022/03/10 12:05:51;;;;;;;;;11.75;11.75;;;;;;;;5022932;28;46984;-73
2022/03/10 12:08:20;;;;;;;;;12.00;10.50;;;;;;;;5027468;28;47333;-72
2022/03/10 12:10:47;;;;;;;;;20.50;19.50;;;;;;;;5032836;28;45495;-72
2022/03/10 12:13:23;;;;;;;;;10.00;9.00;;;;;;;;5033791;28;45842;-74
2022/03/10 12:15:49;;;;;;;;;11.50;10.50;;;;;;;;5032585;28;45468;-72
2022/03/10 12:18:18;;;;;;;;;9.75;9.75;;;;;;;;5033750;28;45327;-73
2022/03/10 12:20:44;;;;;;;;;11.25;8.25;;;;;;;;5033401;28;45318;-73
2022/03/10 12:23:15;;;;;;;;;6.00;6.00;;;;;;;;5033080;28;45462;-72
2022/03/10 12:25:44;;;;;;;;;11.50;10.75;;;;;;;;5033161;28;46280;-72
2022/03/10 12:28:11;;;;;;;;;11.75;11.00;;;;;;;;5033451;28;45414;-75
2022/03/10 12:30:41;;;;;;;;;9.25;9.25;;;;;;;;5018746;28;45280;-78
2022/03/10 12:33:06;;;;;;;;;9.00;9.00;;;;;;;;5021568;28;45380;-79
2022/03/10 12:35:32;;;;;;;;;9.00;9.00;;;;;;;;5023040;28;45706;-78
2022/03/10 12:37:57;;;;;;;;;12.25;12.25;;;;;;;;5026559;28;45497;-77
2022/03/10 12:40:25;;;;;;;;;11.25;10.00;;;;;;;;5034057;28;45402;-77
2022/03/10 12:42:51;;;;;;;;;8.75;8.75;;;;;;;;5018038;28;45285;-78
2022/03/10 12:45:20;;;;;;;;;11.00;11.00;;;;;;;;5019480;28;46288;-77
2022/03/10 12:47:49;;;;;;;;;9.00;9.00;;;;;;;;5031399;28;45595;-77
2022/03/10 12:50:15;;;;;;;;;8.67;7.67;;;;;;;;5033161;28;45493;-75
2022/03/10 12:52:40;;;;;;;;;8.50;7.25;;;;;;;;5032572;28;45400;-77
2022/03/10 12:55:06;;;;;;;;;5.00;5.00;;;;;;;;5032582;28;46429;-78
2022/03/10 12:57:34;;;;;;;;;9.50;8.25;;;;;;;;5032820;28;45305;-77
2022/03/10 13:00:00;;;;;;;;;8.00;6.50;;;;;;;;5022551;28;45531;-77
2022/03/10 13:02:26;;;;;;;;;8.75;7.25;;;;;;;;5030083;28;45555;-78
2022/03/10 13:04:55;;;;;;;;;11.75;11.00;;;;;;;;5031286;28;46466;-78
2022/03/10 13:07:22;;;;;;;;;7.75;7.75;;;;;;;;5021062;28;45379;-77
2022/03/10 13:09:50;;;;;;;;;11.75;10.25;;;;;;;;5017925;28;45443;-78
2022/03/10 13:12:22;;;;;;;;;7.50;6.75;;;;;;;;5020190;28;45454;-78
2022/03/10 13:14:47;;;;;;;;;7.25;7.25;;;;;;;;5031685;28;45473;-77
2022/03/10 13:17:13;;;;;;;;;8.00;7.75;;;;;;;;5033412;28;45307;-77
2022/03/10 13:19:41;;;;;;;;;15.50;11.75;;;;;;;;5033160;28;45326;-78
2022/03/10 13:22:06;;;;;;;;;6.00;6.00;;;;;;;;5032968;28;45484;-78
2022/03/10 13:24:46;;;;;;;;;11.75;9.50;;;;;;;;5017457;28;45939;-78
2022/03/10 13:27:19;;;;;;;;;7.00;7.00;;;;;;;;5019418;28;45330;-77
2022/03/10 13:29:47;;;;;;;;;8.50;8.50;;;;;;;;5030972;28;45425;-78
2022/03/10 13:32:13;;;;;;;;;9.00;8.00;;;;;;;;5028699;28;45454;-78
2022/03/10 13:34:38;;;;;;;;;12.50;9.00;;;;;;;;5023535;28;47307;-78
2022/03/10 13:37:06;;;;;;;;;10.25;9.25;;;;;;;;5033973;28;45488;-77
2022/03/10 13:39:32;;;;;;;;;10.00;9.00;;;;;;;;5034222;28;45444;-78
2022/03/10 13:41:58;;;;;;;;;9.00;9.00;;;;;;;;5033395;28;45736;-76
2022/03/10 13:44:23;;;;;;;;;11.25;11.25;;;;;;;;5033225;28;45441;-78
2022/03/10 13:46:48;;;;;;;;;9.00;9.00;;;;;;;;5031661;28;45534;-78
2022/03/10 13:49:21;;;;;;;;;10.25;9.75;;;;;;;;5019919;28;45294;-78
2022/03/10 13:51:47;;;;;;;;;6.00;6.00;;;;;;;;5017606;28;45407;-78
2022/03/10 13:54:12;;;;;;;;;10.00;8.75;;;;;;;;5033543;28;49184;-78
2022/03/10 13:56:41;;;;;;;;;11.00;11.00;;;;;;;;5033440;28;45271;-77
2022/03/10 13:59:09;;;;;;;;;9.25;8.25;;;;;;;;5033355;28;45391;-77
2022/03/10 14:01:35;;;;;;;;;8.75;6.00;;;;;;;;5032296;28;45658;-78
2022/03/10 14:04:07;;;;;;;;;13.25;13.25;;;;;;;;5016269;28;46222;-78
2022/03/10 14:06:40;;;;;;;;;9.75;8.75;;;;;;;;5029307;28;45462;-79
2022/03/10 14:09:14;;;;;;;;;10.00;10.00;;;;;;;;5018999;28;45265;-78
2022/03/10 14:11:40;;;;;;;;;8.50;8.50;;;;;;;;5029575;28;45398;-77
2022/03/10 14:14:05;;;;;;;;;8.75;8.50;;;;;;;;5031574;28;46043;-78
2022/03/10 14:16:31;;;;;;;;;8.25;8.00;;;;;;;;5032219;28;45398;-79
2022/03/10 14:18:57;;;;;;;;;12.75;11.75;;;;;;;;5031958;28;45489;-77
2022/03/10 14:21:22;;;;;;;;;7.50;7.50;;;;;;;;5032558;28;45553;-79
2022/03/10 14:24:14;;;;;;;;;10.00;9.25;;;;;;;;5032296;28;46030;-78
2022/03/10 14:26:41;;;;;;;;;8.75;8.25;;;;;;;;5026963;28;45237;-77
2022/03/10 14:29:06;;;;;;;;;9.25;9.25;;;;;;;;5032874;28;45357;-77
2022/03/10 14:31:31;;;;;;;;;10.00;8.75;;;;;;;;5032047;28;45432;-78
2022/03/10 14:33:56;;;;;;;;;10.00;8.75;;;;;;;;5034798;28;46290;-79
2022/03/10 14:36:23;;;;;;;;;10.00;10.00;;;;;;;;5035727;28;45335;-78
2022/03/10 14:38:49;;;;;;;;;9.50;9.00;;;;;;;;5035266;28;45453;-78
2022/03/10 14:41:25;;;;;;;;;12.00;12.00;;;;;;;;5029765;28;45557;-77
2022/03/10 14:43:51;;;;;;;;;10.50;10.50;;;;;;;;5025651;28;46768;-78
2022/03/10 14:46:17;;;;;;;;;14.75;12.00;;;;;;;;5034988;28;45224;-77
2022/03/10 14:48:42;;;;;;;;;8.25;8.25;;;;;;;;5035802;28;45241;-77
2022/03/10 14:51:08;;;;;;;;;13.50;12.75;;;;;;;;5036170;28;45604;-77
2022/03/10 14:53:33;;;;;;;;;10.00;10.00;;;;;;;;5035959;28;47083;-78
2022/03/10 14:55:58;;;;;;;;;11.50;11.25;;;;;;;;5034659;28;45386;-78
2022/03/10 14:58:24;;;;;;;;;10.75;10.00;;;;;;;;5035906;28;45296;-78
2022/03/10 15:00:49;;;;;;;;;11.50;10.50;;;;;;;;5035892;28;45363;-79
2022/03/10 15:03:14;;;;;;;;;13.75;11.25;;;;;;;;5036198;28;46319;-77
2022/03/10 15:05:39;;;;;;;;;13.00;13.00;;;;;;;;5026931;28;45353;-77
2022/03/10 15:08:05;;;;;;;;;15.00;13.50;;;;;;;;5024025;28;45464;-77
2022/03/10 15:10:31;;;;;;;;;15.00;12.75;;;;;;;;5024158;28;45235;-79
2022/03/10 15:12:56;;;;;;;;;12.50;11.00;;;;;;;;5035337;28;46204;-76
2022/03/10 15:15:22;;;;;;;;;9.25;8.00;;;;;;;;5035779;28;45445;-78
2022/03/10 15:17:47;;;;;;;;;14.75;12.25;;;;;;;;5034486;28;45522;-78
2022/03/10 15:20:15;;;;;;;;;11.75;10.00;;;;;;;;5028871;28;45524;-78
2022/03/10 15:22:55;;;;;;;;;12.25;10.50;;;;;;;;5022703;28;47635;-76
2022/03/10 15:25:24;;;;;;;;;16.50;14.75;;;;;;;;5034471;28;45486;-77
2022/03/10 15:27:50;;;;;;;;;14.25;12.50;;;;;;;;5034439;28;45525;-78
2022/03/10 15:30:15;;;;;;;;;17.25;14.25;;;;;;;;5034818;28;45782;-78
2022/03/10 15:32:41;;;;;;;;;19.50;16.25;;;;;;;;5034135;28;46299;-78